createdAt,value
2023-03-25T00:00:18.095Z,9.33
2023-03-25T00:02:48.135Z,10.03
2023-03-25T00:05:18.575Z,9.20
2023-03-25T00:07:50.420Z,9.73
2023-03-25T00:10:19.350Z,10.37
2023-03-25T00:12:47.020Z,10.83
2023-03-25T00:15:14.299Z,10.93
2023-03-25T00:17:41.510Z,9.73
2023-03-25T00:20:11.184Z,9.03
2023-03-25T00:22:40.552Z,8.30
2023-03-25T00:25:14.684Z,9.17
2023-03-25T00:27:41.894Z,9.47
2023-03-25T00:30:10.203Z,9.43
2023-03-25T00:32:37.426Z,9.93
2023-03-25T00:35:05.079Z,10.17
2023-03-25T00:37:32.295Z,8.93
2023-03-25T00:39:59.599Z,8.50
2023-03-25T00:42:26.871Z,8.57
2023-03-25T00:44:54.574Z,8.50
2023-03-25T00:47:21.903Z,9.70
2023-03-25T00:49:50.069Z,11.73
2023-03-25T00:52:17.464Z,12.60
2023-03-25T00:54:44.955Z,16.40
2023-03-25T00:57:12.357Z,13.90
2023-03-25T00:59:39.599Z,13.67
2023-03-25T01:02:06.993Z,14.57
2023-03-25T01:04:35.572Z,14.50
2023-03-25T01:07:02.848Z,13.30
2023-03-25T01:09:30.791Z,11.17
2023-03-25T01:11:58.329Z,11.50
2023-03-25T01:14:25.704Z,10.50
2023-03-25T01:16:53.344Z,12.17
2023-03-25T01:19:21.651Z,10.20
2023-03-25T01:21:49.082Z,11.40
2023-03-25T01:24:16.353Z,13.37
2023-03-25T01:26:45.274Z,10.63
2023-03-25T01:29:16.195Z,10.70
2023-03-25T01:31:44.474Z,11.43
2023-03-25T01:34:13.517Z,9.47
2023-03-25T01:36:40.808Z,9.90
2023-03-25T01:39:09.202Z,9.93
2023-03-25T01:41:49.240Z,10.23
2023-03-25T01:44:20.311Z,10.10
2023-03-25T01:46:48.758Z,10.93
2023-03-25T01:49:23.942Z,13.20
2023-03-25T01:52:00.991Z,41.23
2023-03-25T01:54:28.828Z,39.70
2023-03-25T01:56:56.741Z,16.60
2023-03-25T01:59:28.076Z,15.00
2023-03-25T02:02:00.406Z,17.97
2023-03-25T02:05:03.675Z,15.70
2023-03-25T02:07:35.670Z,17.40
2023-03-25T02:10:09.693Z,17.43
2023-03-25T02:12:36.845Z,15.27
2023-03-25T02:15:08.117Z,15.87
2023-03-25T02:18:19.493Z,15.10
2023-03-25T02:21:23.002Z,15.07
2023-03-25T02:24:41.543Z,16.00
2023-03-25T02:27:23.676Z,13.97
2023-03-25T02:30:10.562Z,14.77
2023-03-25T02:33:14.108Z,13.97
2023-03-25T02:36:10.332Z,17.73
2023-03-25T02:39:08.970Z,14.97
2023-03-25T02:42:26.672Z,14.03
2023-03-25T02:45:02.456Z,14.80
2023-03-25T02:47:41.260Z,14.33
2023-03-25T02:50:30.102Z,11.80
2023-03-25T02:53:03.890Z,12.03
2023-03-25T02:55:32.759Z,10.97
2023-03-25T02:58:04.914Z,11.33
2023-03-25T03:00:33.922Z,10.20
2023-03-25T03:03:05.402Z,10.23
2023-03-25T03:05:44.326Z,13.43
2023-03-25T03:08:30.761Z,8.73
2023-03-25T03:11:35.815Z,9.07
2023-03-25T03:14:32.956Z,9.10
2023-03-25T03:17:25.690Z,8.07
2023-03-25T03:20:44.187Z,14.80
2023-03-25T03:23:51.457Z,12.87
2023-03-25T03:26:58.507Z,7.70
2023-03-25T03:29:38.726Z,6.40
2023-03-25T03:32:20.126Z,6.73
2023-03-25T03:35:01.220Z,6.27
2023-03-25T03:37:42.050Z,6.87
2023-03-25T03:40:19.962Z,5.40
2023-03-25T03:42:55.208Z,6.10
2023-03-25T03:45:33.883Z,5.83
2023-03-25T03:48:10.904Z,4.97
2023-03-25T03:50:49.496Z,5.00
2023-03-25T03:53:29.472Z,4.90
2023-03-25T03:56:06.497Z,3.90
2023-03-25T03:58:42.480Z,3.30
2023-03-25T04:01:32.781Z,3.30
2023-03-25T04:04:06.333Z,1.87
2023-03-25T04:07:21.728Z,7.33
2023-03-25T04:10:07.758Z,1.93
2023-03-25T04:12:41.036Z,1.67
2023-03-25T04:15:09.320Z,1.13
2023-03-25T04:17:36.635Z,1.07
2023-03-25T04:20:04.662Z,0.73
2023-03-25T04:22:32.034Z,0.93
2023-03-25T04:24:59.207Z,0.83
2023-03-25T04:27:26.813Z,5.80
2023-03-25T04:29:53.953Z,1.57
2023-03-25T04:32:21.150Z,1.20
2023-03-25T04:34:48.502Z,1.67
2023-03-25T04:37:15.653Z,1.40
2023-03-25T04:39:42.835Z,1.60
2023-03-25T04:42:10.506Z,1.50
2023-03-25T04:44:37.661Z,2.40
2023-03-25T04:47:08.020Z,6.50
2023-03-25T04:49:37.587Z,1.80
2023-03-25T04:52:05.054Z,3.00
2023-03-25T04:54:32.218Z,4.47
2023-03-25T04:56:59.392Z,2.80
2023-03-25T04:59:26.642Z,1.80
2023-03-25T05:01:54.062Z,2.87
2023-03-25T05:04:21.284Z,1.00
2023-03-25T05:06:50.395Z,1.00
2023-03-25T05:09:21.684Z,1.70
2023-03-25T05:11:51.635Z,0.87
2023-03-25T05:14:21.653Z,0.93
2023-03-25T05:16:48.976Z,1.00
2023-03-25T05:19:17.396Z,2.37
2023-03-25T05:21:45.022Z,1.17
2023-03-25T05:24:13.676Z,1.40
2023-03-25T05:26:42.734Z,1.57
2023-03-25T05:29:14.513Z,1.50
2023-03-25T05:31:46.662Z,1.70
2023-03-25T05:34:14.922Z,1.80
2023-03-25T05:36:42.192Z,1.67
2023-03-25T05:39:09.845Z,1.40
2023-03-25T05:41:37.048Z,1.30
2023-03-25T05:44:06.328Z,1.47
2023-03-25T05:46:33.869Z,1.67
2023-03-25T05:49:01.388Z,1.30
2023-03-25T05:51:32.672Z,1.30
2023-03-25T05:54:00.402Z,1.30
2023-03-25T05:56:27.719Z,1.30
2023-03-25T05:58:55.357Z,1.30
2023-03-25T06:01:32.751Z,2.00
2023-03-25T06:04:03.145Z,1.23
2023-03-25T06:06:32.515Z,0.90
2023-03-25T06:08:59.809Z,1.27
2023-03-25T06:11:27.062Z,1.80
2023-03-25T06:13:54.287Z,2.00
2023-03-25T06:16:24.488Z,1.87
2023-03-25T06:18:51.995Z,1.70
2023-03-25T06:21:20.474Z,1.00
2023-03-25T06:23:47.806Z,1.00
2023-03-25T06:26:22.178Z,0.90
2023-03-25T06:28:49.583Z,0.90
2023-03-25T06:31:21.599Z,0.73
2023-03-25T06:33:50.857Z,0.90
2023-03-25T06:36:22.650Z,1.23
2023-03-25T06:38:51.389Z,1.10
2023-03-25T06:41:20.785Z,0.90
2023-03-25T06:43:49.041Z,1.47
2023-03-25T06:46:16.788Z,1.00
2023-03-25T06:48:44.279Z,1.30
2023-03-25T06:51:23.127Z,0.90
2023-03-25T06:53:50.399Z,1.53
2023-03-25T06:56:18.588Z,1.20
2023-03-25T06:58:46.151Z,1.20
2023-03-25T07:01:13.637Z,0.90
2023-03-25T07:03:40.866Z,19.87
2023-03-25T07:06:08.673Z,7.93
2023-03-25T07:08:37.239Z,2.97
2023-03-25T07:11:07.722Z,2.40
2023-03-25T07:13:35.576Z,1.60
2023-03-25T07:16:03.225Z,1.30
2023-03-25T07:18:30.955Z,1.27
2023-03-25T07:20:58.355Z,1.30
2023-03-25T07:23:26.233Z,1.20
2023-03-25T07:25:53.961Z,2.80
2023-03-25T07:28:21.198Z,1.40
2023-03-25T07:30:48.538Z,0.90
2023-03-25T07:33:15.796Z,0.80
2023-03-25T07:35:46.859Z,1.00
2023-03-25T07:38:14.293Z,1.00
2023-03-25T07:40:41.616Z,1.10
2023-03-25T07:43:08.997Z,0.80
2023-03-25T07:45:56.057Z,1.07
2023-03-25T07:48:23.272Z,1.03
2023-03-25T07:50:52.991Z,1.20
2023-03-25T07:53:21.756Z,1.10
2023-03-25T07:55:49.146Z,1.27
2023-03-25T07:58:17.664Z,1.10
2023-03-25T08:00:45.195Z,1.13
2023-03-25T08:03:14.223Z,1.30
2023-03-25T08:05:48.957Z,1.00
2023-03-25T08:08:16.502Z,0.97
2023-03-25T08:10:45.315Z,1.23
2023-03-25T08:13:13.339Z,0.93
2023-03-25T08:15:40.947Z,1.10
2023-03-25T08:18:08.521Z,1.47
2023-03-25T08:20:36.188Z,0.90
2023-03-25T08:23:03.755Z,1.33
2023-03-25T08:25:31.694Z,1.03
2023-03-25T08:27:58.974Z,1.20
2023-03-25T08:30:26.152Z,1.20
2023-03-25T08:32:53.354Z,1.13
2023-03-25T08:35:24.328Z,1.23
2023-03-25T08:37:51.861Z,1.03
2023-03-25T08:40:19.221Z,1.50
2023-03-25T08:42:46.970Z,1.30
2023-03-25T08:45:14.254Z,1.17
2023-03-25T08:47:41.410Z,1.20
2023-03-25T08:50:09.464Z,1.23
2023-03-25T08:52:36.810Z,1.17
2023-03-25T08:55:06.168Z,1.30
2023-03-25T08:57:35.209Z,1.10
2023-03-25T09:00:04.534Z,1.10
2023-03-25T09:02:31.827Z,1.10
2023-03-25T09:04:59.077Z,1.20
2023-03-25T09:07:26.353Z,1.20
2023-03-25T09:09:53.569Z,1.10
2023-03-25T09:12:20.776Z,1.20
2023-03-25T09:14:48.055Z,1.10
2023-03-25T09:17:15.352Z,2.20
2023-03-25T09:19:42.509Z,0.90
2023-03-25T09:22:09.822Z,1.03
2023-03-25T09:24:36.996Z,0.90
2023-03-25T09:27:04.436Z,1.03
2023-03-25T09:29:31.687Z,1.07
2023-03-25T09:31:59.704Z,0.97
2023-03-25T09:34:28.314Z,1.43
2023-03-25T09:36:56.511Z,0.77
2023-03-25T09:39:23.980Z,0.80
2023-03-25T09:42:42.774Z,0.80
2023-03-25T09:45:34.577Z,0.80
2023-03-25T09:48:30.038Z,0.70
2023-03-25T09:51:07.493Z,0.73
2023-03-25T09:53:56.257Z,0.93
2023-03-25T09:56:28.565Z,2.63
2023-03-25T09:59:06.908Z,1.63
2023-03-25T10:01:58.994Z,0.87
2023-03-25T10:04:44.286Z,0.80
2023-03-25T10:07:36.919Z,1.90
2023-03-25T10:10:42.471Z,1.00
2023-03-25T10:13:27.519Z,0.80
2023-03-25T10:16:19.755Z,0.87
2023-03-25T10:19:45.716Z,2.17
2023-03-25T10:22:48.119Z,0.87
2023-03-25T10:25:23.933Z,1.10
2023-03-25T10:27:52.913Z,0.77
2023-03-25T10:30:30.245Z,1.27
2023-03-25T10:33:05.983Z,0.70
2023-03-25T10:35:46.015Z,0.90
2023-03-25T10:38:22.470Z,1.17
2023-03-25T10:40:56.088Z,0.60
2023-03-25T10:43:42.672Z,0.63
2023-03-25T10:46:51.607Z,0.90
2023-03-25T10:49:26.972Z,1.40
2023-03-25T10:51:54.844Z,1.50
2023-03-25T10:54:28.524Z,5.27
2023-03-25T10:57:03.634Z,0.70
2023-03-25T11:00:03.391Z,0.60
2023-03-25T11:02:33.535Z,0.60
2023-03-25T11:05:07.560Z,0.70
2023-03-25T11:07:42.043Z,0.80
2023-03-25T11:10:30.957Z,0.70
2023-03-25T11:12:58.680Z,0.70
2023-03-25T11:15:38.525Z,0.80
2023-03-25T11:18:16.146Z,0.70
2023-03-25T11:21:02.756Z,0.70
2023-03-25T11:23:49.150Z,0.52
2023-03-25T11:26:36.338Z,0.70
2023-03-25T11:29:27.993Z,0.60
2023-03-25T11:32:32.725Z,0.70
2023-03-25T11:35:14.490Z,0.68
2023-03-25T11:37:55.881Z,0.90
2023-03-25T11:40:24.602Z,1.57
2023-03-25T11:42:58.936Z,0.83
2023-03-25T11:45:37.461Z,0.70
2023-03-25T11:48:17.270Z,0.70
2023-03-25T11:50:54.223Z,0.80
2023-03-25T11:53:26.183Z,0.70
2023-03-25T11:56:05.178Z,0.83
2023-03-25T11:58:37.021Z,1.00
2023-03-25T12:01:25.497Z,1.40
2023-03-25T12:04:05.521Z,0.70
2023-03-25T12:06:33.440Z,1.13
2023-03-25T12:09:10.411Z,1.20
2023-03-25T12:11:58.045Z,1.73
2023-03-25T12:14:36.263Z,0.90
2023-03-25T12:17:40.269Z,0.90
2023-03-25T12:21:11.038Z,1.10
2023-03-25T12:24:02.638Z,0.80
2023-03-25T12:27:11.126Z,0.83
2023-03-25T12:30:27.330Z,0.70
2023-03-25T12:33:29.503Z,1.30
2023-03-25T12:36:33.313Z,0.80
2023-03-25T12:39:29.307Z,2.67
2023-03-25T12:42:33.912Z,1.20
2023-03-25T12:45:30.597Z,0.80
2023-03-25T12:48:19.824Z,0.90
2023-03-25T12:51:19.506Z,0.87
2023-03-25T12:54:13.458Z,2.13
2023-03-25T12:57:00.636Z,0.90
2023-03-25T12:59:38.801Z,1.30
2023-03-25T13:02:15.681Z,0.80
2023-03-25T13:05:06.183Z,1.00
2023-03-25T13:07:43.074Z,6.60
2023-03-25T13:10:23.436Z,1.60
2023-03-25T13:12:56.408Z,2.00
2023-03-25T13:15:44.066Z,1.60
2023-03-25T13:18:22.915Z,0.90
2023-03-25T13:21:13.398Z,0.80
2023-03-25T13:23:47.607Z,1.37
2023-03-25T13:26:21.107Z,0.70
2023-03-25T13:28:50.993Z,1.23
2023-03-25T13:31:23.381Z,0.90
2023-03-25T13:34:28.368Z,0.77
2023-03-25T13:37:10.901Z,0.80
2023-03-25T13:40:27.913Z,0.67
2023-03-25T13:43:32.590Z,2.33
2023-03-25T13:46:19.816Z,0.90
2023-03-25T13:48:59.460Z,0.80
2023-03-25T13:51:27.132Z,0.70
2023-03-25T13:54:08.342Z,1.87
2023-03-25T13:57:03.328Z,0.70
2023-03-25T13:59:49.249Z,0.80
2023-03-25T14:02:34.144Z,2.13
2023-03-25T14:05:20.874Z,0.83
2023-03-25T14:08:29.646Z,4.27
2023-03-25T14:11:32.142Z,0.70
2023-03-25T14:14:15.813Z,1.60
2023-03-25T14:16:52.075Z,1.00
2023-03-25T14:19:42.791Z,1.30
2023-03-25T14:22:24.337Z,1.43
2023-03-25T14:24:52.331Z,3.90
2023-03-25T14:27:31.228Z,0.80
2023-03-25T14:30:18.634Z,1.87
2023-03-25T14:32:46.005Z,1.93
2023-03-25T14:35:32.082Z,1.63
2023-03-25T14:38:08.694Z,1.50
2023-03-25T14:41:02.176Z,1.10
2023-03-25T14:43:37.925Z,1.10
2023-03-25T14:46:11.173Z,1.00
2023-03-25T14:48:45.061Z,1.00
2023-03-25T14:51:27.515Z,0.80
2023-03-25T14:54:16.573Z,0.87
2023-03-25T14:57:15.973Z,1.00
2023-03-25T15:00:02.115Z,1.00
2023-03-25T15:02:33.710Z,2.30
2023-03-25T15:05:19.022Z,0.70
2023-03-25T15:07:57.857Z,1.00
2023-03-25T15:10:42.959Z,0.90
2023-03-25T15:13:21.730Z,0.70
2023-03-25T15:15:48.959Z,0.70
2023-03-25T15:18:34.909Z,0.83
2023-03-25T15:21:09.037Z,1.37
2023-03-25T15:23:46.737Z,0.70
2023-03-25T15:26:42.317Z,0.83
2023-03-25T15:29:55.518Z,0.80
2023-03-25T15:33:13.183Z,2.83
2023-03-25T15:36:41.947Z,0.77
2023-03-25T15:39:55.797Z,0.90
2023-03-25T15:42:53.532Z,0.50
2023-03-25T15:45:46.806Z,0.67
2023-03-25T15:49:27.964Z,0.50
2023-03-25T15:52:11.769Z,0.60
2023-03-25T15:54:56.871Z,0.80
2023-03-25T15:57:44.548Z,1.60
2023-03-25T16:00:27.165Z,1.10
2023-03-25T16:03:24.795Z,0.50
2023-03-25T16:06:02.623Z,0.60
2023-03-25T16:08:40.310Z,0.60
2023-03-25T16:11:19.619Z,0.70
2023-03-25T16:14:00.768Z,0.60
2023-03-25T16:16:30.934Z,1.50
2023-03-25T16:18:58.128Z,0.60
2023-03-25T16:21:30.250Z,0.70
2023-03-25T16:24:06.138Z,0.80
2023-03-25T16:26:46.490Z,0.80
2023-03-25T16:29:24.464Z,0.70
2023-03-25T16:32:02.398Z,0.77
2023-03-25T16:34:36.321Z,1.03
2023-03-25T16:37:05.949Z,0.70
2023-03-25T16:39:39.077Z,0.70
2023-03-25T16:42:19.203Z,0.50
2023-03-25T16:44:47.200Z,0.90
2023-03-25T16:47:16.839Z,1.40
2023-03-25T16:49:51.048Z,0.60
2023-03-25T16:52:25.913Z,0.77
2023-03-25T16:54:52.994Z,0.60
2023-03-25T16:57:26.247Z,1.10
2023-03-25T16:59:55.475Z,1.00
2023-03-25T17:02:38.147Z,1.00
2023-03-25T17:05:29.149Z,0.90
2023-03-25T17:08:07.747Z,2.20
2023-03-25T17:10:55.580Z,1.23
2023-03-25T17:13:39.360Z,1.07
2023-03-25T17:16:08.284Z,1.40
2023-03-25T17:18:37.983Z,1.30
2023-03-25T17:21:19.992Z,2.13
2023-03-25T17:23:47.395Z,1.33
2023-03-25T17:26:19.741Z,4.30
2023-03-25T17:28:55.806Z,2.53
2023-03-25T17:31:37.348Z,1.10
2023-03-25T17:34:18.983Z,5.83
2023-03-25T17:36:56.113Z,2.47
2023-03-25T17:39:26.792Z,9.63
2023-03-25T17:42:04.060Z,0.70
2023-03-25T17:44:39.731Z,0.77
2023-03-25T17:47:12.884Z,0.80
2023-03-25T17:49:40.375Z,0.70
2023-03-25T17:52:07.846Z,1.00
2023-03-25T17:54:36.301Z,1.27
2023-03-25T17:57:23.734Z,2.07
2023-03-25T17:59:52.097Z,4.43
2023-03-25T18:02:19.444Z,8.50
2023-03-25T18:04:46.556Z,4.60
2023-03-25T18:07:13.838Z,5.40
2023-03-25T18:09:41.285Z,3.33
2023-03-25T18:12:08.818Z,5.50
2023-03-25T18:14:36.254Z,2.73
2023-03-25T18:17:04.015Z,1.40
2023-03-25T18:19:32.344Z,1.23
2023-03-25T18:22:06.874Z,1.90
2023-03-25T18:24:41.226Z,0.80
2023-03-25T18:27:11.388Z,2.93
2023-03-25T18:29:38.972Z,0.70
2023-03-25T18:32:06.343Z,1.50
2023-03-25T18:34:33.636Z,1.80
2023-03-25T18:37:00.852Z,0.90
2023-03-25T18:39:28.752Z,1.60
2023-03-25T18:41:55.902Z,0.80
2023-03-25T18:44:23.052Z,0.70
2023-03-25T18:46:50.267Z,0.80
2023-03-25T18:49:19.916Z,1.30
2023-03-25T18:51:47.709Z,1.20
2023-03-25T18:54:16.239Z,0.90
2023-03-25T18:56:44.146Z,1.20
2023-03-25T18:59:15.950Z,2.77
2023-03-25T19:01:43.180Z,1.60
2023-03-25T19:04:10.453Z,4.00
2023-03-25T19:06:37.714Z,3.07
2023-03-25T19:09:05.988Z,2.10
2023-03-25T19:11:33.197Z,3.40
2023-03-25T19:14:00.603Z,6.70
2023-03-25T19:16:28.018Z,3.47
2023-03-25T19:18:55.250Z,5.53
2023-03-25T19:21:22.393Z,6.03
2023-03-25T19:23:50.587Z,7.03
2023-03-25T19:26:17.987Z,2.20
2023-03-25T19:28:45.339Z,4.70
2023-03-25T19:31:14.479Z,2.53
2023-03-25T19:33:41.772Z,5.77
2023-03-25T19:36:15.674Z,7.17
2023-03-25T19:38:43.203Z,5.67
2023-03-25T19:41:15.168Z,4.03
2023-03-25T19:43:42.553Z,4.23
2023-03-25T19:46:09.905Z,2.40
2023-03-25T19:48:37.418Z,6.07
2023-03-25T19:51:04.974Z,5.30
2023-03-25T19:53:32.261Z,6.73
2023-03-25T19:56:05.222Z,3.97
2023-03-25T19:58:33.749Z,6.30
2023-03-25T20:01:00.907Z,3.80
2023-03-25T20:03:28.359Z,3.40
2023-03-25T20:06:03.668Z,5.90
2023-03-25T20:08:30.943Z,4.47
2023-03-25T20:10:58.727Z,4.43
2023-03-25T20:13:26.743Z,5.83
2023-03-25T20:15:54.538Z,5.73
2023-03-25T20:18:22.062Z,5.00
2023-03-25T20:20:49.603Z,4.47
2023-03-25T20:23:17.175Z,11.07
2023-03-25T20:25:44.701Z,5.30
2023-03-25T20:28:12.212Z,5.43
2023-03-25T20:30:39.819Z,4.33
2023-03-25T20:33:07.371Z,3.90
2023-03-25T20:35:34.836Z,3.70
2023-03-25T20:38:02.213Z,3.77
2023-03-25T20:40:41.513Z,5.87
2023-03-25T20:43:11.496Z,3.57
2023-03-25T20:45:39.381Z,3.30
2023-03-25T20:48:07.033Z,3.80
2023-03-25T20:50:34.623Z,3.70
2023-03-25T20:53:02.183Z,3.30
2023-03-25T20:55:29.717Z,3.40
2023-03-25T20:57:57.274Z,3.80
2023-03-25T21:00:24.807Z,4.00
2023-03-25T21:02:52.384Z,3.30
2023-03-25T21:05:20.278Z,3.20
2023-03-25T21:07:48.009Z,4.17
2023-03-25T21:10:15.614Z,3.47
2023-03-25T21:12:44.655Z,4.83
2023-03-25T21:15:14.105Z,2.80
2023-03-25T21:17:41.888Z,2.37
2023-03-25T21:20:10.476Z,3.17
2023-03-25T21:22:43.419Z,2.47
2023-03-25T21:25:13.173Z,2.43
2023-03-25T21:27:40.671Z,2.90
2023-03-25T21:30:09.990Z,2.07
2023-03-25T21:32:39.319Z,2.30
2023-03-25T21:35:08.175Z,4.70
2023-03-25T21:37:37.376Z,3.60
2023-03-25T21:40:06.715Z,1.47
2023-03-25T21:42:34.192Z,1.87
2023-03-25T21:45:01.688Z,2.00
2023-03-25T21:47:29.233Z,2.27
2023-03-25T21:49:56.822Z,2.20
2023-03-25T21:52:24.386Z,1.87
2023-03-25T21:54:52.088Z,1.90
2023-03-25T21:57:19.862Z,1.80
2023-03-25T21:59:47.517Z,1.80
2023-03-25T22:02:15.000Z,1.50
2023-03-25T22:04:42.549Z,1.97
2023-03-25T22:07:10.089Z,2.97
2023-03-25T22:09:37.748Z,2.70
2023-03-25T22:12:05.775Z,13.17
2023-03-25T22:14:33.613Z,3.03
2023-03-25T22:17:01.198Z,2.80
2023-03-25T22:19:28.808Z,3.73
2023-03-25T22:21:56.288Z,2.00
2023-03-25T22:24:23.806Z,2.00
2023-03-25T22:26:51.493Z,2.10
2023-03-25T22:29:18.996Z,2.07
2023-03-25T22:31:46.587Z,1.67
2023-03-25T22:34:15.883Z,1.50
2023-03-25T22:36:46.388Z,1.43
2023-03-25T22:39:14.202Z,5.57
2023-03-25T22:41:41.694Z,2.33
2023-03-25T22:44:09.428Z,1.90
2023-03-25T22:46:37.282Z,2.10
2023-03-25T22:49:04.873Z,2.50
2023-03-25T22:51:32.483Z,2.10
2023-03-25T22:54:00.677Z,1.67
2023-03-25T22:56:28.165Z,2.13
2023-03-25T22:58:55.680Z,2.83
2023-03-25T23:01:25.649Z,1.90
2023-03-25T23:03:55.147Z,1.80
2023-03-25T23:06:23.563Z,2.03
2023-03-25T23:08:51.193Z,1.50
2023-03-25T23:11:21.204Z,1.60
2023-03-25T23:13:57.338Z,1.70
2023-03-25T23:16:27.724Z,2.23
2023-03-25T23:18:55.482Z,2.43
2023-03-25T23:21:26.210Z,1.67
2023-03-25T23:23:56.388Z,1.70
2023-03-25T23:26:38.411Z,1.90
2023-03-25T23:29:09.111Z,2.60
2023-03-25T23:31:38.105Z,2.40
2023-03-25T23:34:09.128Z,2.70
2023-03-25T23:36:37.515Z,2.20
2023-03-25T23:39:10.930Z,2.77
2023-03-25T23:41:38.743Z,11.43
2023-03-25T23:44:06.953Z,1.97
2023-03-25T23:46:35.036Z,1.70
2023-03-25T23:49:02.650Z,1.77
2023-03-25T23:51:35.242Z,1.67
2023-03-25T23:54:04.131Z,2.40
2023-03-25T23:56:31.557Z,1.63
2023-03-25T23:59:00.442Z,1.70
